Thunder radar more information blitzortung!


Radar de pluja more information rain snow radar


Visita la nostra xarxa de llocs de meteo:

Template documentation
and downloads

And another site



No particular awareness of the weather is required.    There are no Weather-warnings

Pagina Historial Weather Underground text

Diari Resum February 5, 2018 Unitats:  Tant    Imperial   Mètric
« Previous Dia
SegĂźent Dia »
Diari Setmana Mensual Anual Personalitzada
  Maxima: Minima: Media:
Temperatura: TemperatureC °F /  -17.8 °C 3.9 °F /  -15.6 °C 5.9 °F /  -14.5 °C
Punt de rosada: DewpointC °F /  -17.8 °C 1.6 °F /  -16.9 °C 4.3 °F /  -15.4 °C
Humitat: Humidity % 85 % 89 %
Wind Speed: WindSpeedKMH mph /  0 km/h - 5.7 mph /  9.2 km/h
RĂ fegues de vent: WindSpeedGustKMH mph /  0 km/h - -
Vent:- - East
Pression baro: PressurehPa in /  0 hPa 1007.0 in /  34097 hPa -
Precipitacions: 24.9 in /  632.46 mm    
Historical Graphs
 
 
Dades de taula per February 5, 2018
Temps Temperatura Punt de rosada Pression baro Vent Wind Speed RĂ fegues de vent Humitat Rainfall Rate (Hourly)
TemperatureC °F /  -17.8 °C DewpointC °F /  -17.8 °C PressurehPa in /  0 hPa Calm     Humidity % HourlyPrecipMM in /  0 mm
00:00 4.7 °F /  -15.2 °C 2.9 °F /  -16.2 °C 1007.0 in /  34097 hPa NNE 4.8 mph /  7.7 km/h 8.0 mph /  12.9 km/h 88 % 0.0 in /  0 mm
00:01 4.5 °F /  -15.3 °C 2.2 °F /  -16.6 °C 1010.0 in /  34198.6 hPa NNE 4.7 mph /  7.6 km/h 4.7 mph /  7.6 km/h 85 % 0.0 in /  0 mm
00:06 4.5 °F /  -15.3 °C 2.2 °F /  -16.6 °C 1010.0 in /  34198.6 hPa NE 7.4 mph /  11.9 km/h 7.4 mph /  11.9 km/h 85 % 0.0 in /  0 mm
00:10 4.7 °F /  -15.2 °C 2.9 °F /  -16.2 °C 1007.0 in /  34097 hPa NNE 8.0 mph /  12.9 km/h 9.7 mph /  15.6 km/h 88 % 0.0 in /  0 mm
00:11 4.5 °F /  -15.3 °C 2.2 °F /  -16.6 °C 1010.0 in /  34198.6 hPa NNE 7.4 mph /  11.9 km/h 7.4 mph /  11.9 km/h 85 % 0.0 in /  0 mm
00:16 4.5 °F /  -15.3 °C 2.2 °F /  -16.6 °C 1010.0 in /  34198.6 hPa NNE 6.4 mph /  10.3 km/h 6.4 mph /  10.3 km/h 85 % 0.0 in /  0 mm
00:20 4.7 °F /  -15.2 °C 2.9 °F /  -16.2 °C 1007.0 in /  34097 hPa NNE 4.8 mph /  7.7 km/h 6.4 mph /  10.3 km/h 88 % 0.0 in /  0 mm
00:21 4.5 °F /  -15.3 °C 2.2 °F /  -16.6 °C 1010.0 in /  34198.6 hPa NNE 11.1 mph /  17.9 km/h 11.1 mph /  17.9 km/h 85 % 0.0 in /  0 mm
00:26 4.4 °F /  -15.3 °C 2.1 °F /  -16.6 °C 1010.0 in /  34198.6 hPa NNE 7.4 mph /  11.9 km/h 7.4 mph /  11.9 km/h 85 % 0.0 in /  0 mm
00:30 4.6 °F /  -15.2 °C 2.8 °F /  -16.2 °C 1007.0 in /  34097 hPa NNE 4.8 mph /  7.7 km/h 8.0 mph /  12.9 km/h 88 % 0.0 in /  0 mm
00:31 4.4 °F /  -15.3 °C 2.1 °F /  -16.6 °C 1010.0 in /  34198.6 hPa NE 3.7 mph /  6 km/h 3.7 mph /  6 km/h 85 % 0.0 in /  0 mm
00:36 4.4 °F /  -15.3 °C 2.1 °F /  -16.6 °C 1010.0 in /  34198.6 hPa NNW 3.7 mph /  6 km/h 3.7 mph /  6 km/h 85 % 0.0 in /  0 mm
00:40 4.6 °F /  -15.2 °C 2.8 °F /  -16.2 °C 1007.0 in /  34097 hPa NNE 3.2 mph /  5.1 km/h 6.4 mph /  10.3 km/h 88 % 0.0 in /  0 mm
00:41 4.4 °F /  -15.3 °C 2.1 °F /  -16.6 °C 1010.0 in /  34198.6 hPa NNE 7.4 mph /  11.9 km/h 7.4 mph /  11.9 km/h 85 % 0.0 in /  0 mm
00:46 4.4 °F /  -15.3 °C 2.1 °F /  -16.6 °C 1010.0 in /  34198.6 hPa NNE 7.4 mph /  11.9 km/h 7.4 mph /  11.9 km/h 85 % 0.0 in /  0 mm
00:50 4.7 °F /  -15.2 °C 2.9 °F /  -16.2 °C 1007.0 in /  34097 hPa NNE 8.0 mph /  12.9 km/h 8.0 mph /  12.9 km/h 88 % 0.0 in /  0 mm
00:51 4.4 °F /  -15.3 °C 2.1 °F /  -16.6 °C 1010.0 in /  34198.6 hPa NW 5.6 mph /  9 km/h 5.6 mph /  9 km/h 85 % 0.0 in /  0 mm
00:56 4.4 °F /  -15.3 °C 2.1 °F /  -16.6 °C 1010.0 in /  34198.6 hPa NNE 5.6 mph /  9 km/h 5.6 mph /  9 km/h 85 % 0.0 in /  0 mm
01:00 4.9 °F /  -15.1 °C 3.2 °F /  -16 °C 1007.0 in /  34097 hPa NE 11.3 mph /  18.2 km/h 11.3 mph /  18.2 km/h 89 % 0.0 in /  0 mm
01:01 4.3 °F /  -15.4 °C 2.0 °F /  -16.7 °C 1010.0 in /  34198.6 hPa NNE 6.4 mph /  10.3 km/h 6.4 mph /  10.3 km/h 85 % 0.0 in /  0 mm
01:06 4.3 °F /  -15.4 °C 2.0 °F /  -16.7 °C 1010.0 in /  34198.6 hPa ENE 5.6 mph /  9 km/h 5.6 mph /  9 km/h 85 % 0.0 in /  0 mm
01:10 5.1 °F /  -14.9 °C 3.4 °F /  -15.9 °C 1007.0 in /  34097 hPa NNE 8.0 mph /  12.9 km/h 12.9 mph /  20.8 km/h 89 % 0.0 in /  0 mm
01:11 4.2 °F /  -15.4 °C 1.9 °F /  -16.7 °C 1010.0 in /  34198.6 hPa NNW 5.6 mph /  9 km/h 5.6 mph /  9 km/h 85 % 0.0 in /  0 mm
01:16 4.2 °F /  -15.4 °C 1.9 °F /  -16.7 °C 1010.0 in /  34198.6 hPa NNE 3.9 mph /  6.3 km/h 3.9 mph /  6.3 km/h 85 % 0.0 in /  0 mm
01:20 5.2 °F /  -14.9 °C 3.6 °F /  -15.8 °C 1007.0 in /  34097 hPa NNE 4.8 mph /  7.7 km/h 11.3 mph /  18.2 km/h 89 % 0.0 in /  0 mm
01:21 4.1 °F /  -15.5 °C 1.8 °F /  -16.8 °C 1010.0 in /  34198.6 hPa NE 9.3 mph /  15 km/h 9.3 mph /  15 km/h 85 % 0.0 in /  0 mm
01:26 4.1 °F /  -15.5 °C 1.8 °F /  -16.8 °C 1010.0 in /  34198.6 hPa NNE 11.1 mph /  17.9 km/h 11.1 mph /  17.9 km/h 85 % 0.0 in /  0 mm
01:31 4.0 °F /  -15.6 °C 1.7 °F /  -16.8 °C 1009.0 in /  34164.7 hPa NNE 13.0 mph /  20.9 km/h 13.0 mph /  20.9 km/h 85 % 0.0 in /  0 mm
01:36 4.0 °F /  -15.6 °C 1.7 °F /  -16.8 °C 1009.0 in /  34164.7 hPa NNE 9.3 mph /  15 km/h 9.3 mph /  15 km/h 85 % 0.0 in /  0 mm
01:40 5.3 °F /  -14.8 °C 3.6 °F /  -15.8 °C 1007.0 in /  34097 hPa NNE 4.8 mph /  7.7 km/h 6.4 mph /  10.3 km/h 89 % 0.0 in /  0 mm
01:41 3.9 °F /  -15.6 °C 1.6 °F /  -16.9 °C 1009.0 in /  34164.7 hPa NNE 9.3 mph /  15 km/h 9.3 mph /  15 km/h 85 % 0.0 in /  0 mm
01:46 3.9 °F /  -15.6 °C 1.6 °F /  -16.9 °C 1010.0 in /  34198.6 hPa NE 5.6 mph /  9 km/h 5.6 mph /  9 km/h 85 % 0.0 in /  0 mm
01:50 5.4 °F /  -14.8 °C 3.9 °F /  -15.6 °C 1007.0 in /  34097 hPa NNE 3.2 mph /  5.1 km/h 8.0 mph /  12.9 km/h 90 % 0.0 in /  0 mm
01:51 3.9 °F /  -15.6 °C 1.6 °F /  -16.9 °C 1010.0 in /  34198.6 hPa ENE 5.6 mph /  9 km/h 5.6 mph /  9 km/h 85 % 0.0 in /  0 mm
01:56 3.9 °F /  -15.6 °C 1.6 °F /  -16.9 °C 1010.0 in /  34198.6 hPa ENE 3.7 mph /  6 km/h 3.7 mph /  6 km/h 85 % 0.0 in /  0 mm
02:00 5.5 °F /  -14.7 °C 4.0 °F /  -15.6 °C 1007.0 in /  34097 hPa NE 8.0 mph /  12.9 km/h 8.0 mph /  12.9 km/h 90 % 0.0 in /  0 mm
02:01 3.9 °F /  -15.6 °C 1.6 °F /  -16.9 °C 1009.0 in /  34164.7 hPa NNE 7.4 mph /  11.9 km/h 7.4 mph /  11.9 km/h 85 % 0.0 in /  0 mm
02:10 5.5 °F /  -14.7 °C 4.0 °F /  -15.6 °C 1007.0 in /  34097 hPa NE 8.0 mph /  12.9 km/h 8.0 mph /  12.9 km/h 90 % 0.0 in /  0 mm
02:20 5.4 °F /  -14.8 °C 3.9 °F /  -15.6 °C 1008.0 in /  34130.9 hPa NNE 1.6 mph /  2.6 km/h 8.0 mph /  12.9 km/h 90 % 0.0 in /  0 mm
02:30 5.4 °F /  -14.8 °C 3.7 °F /  -15.7 °C 1008.0 in /  34130.9 hPa Calm   3.2 mph /  5.1 km/h 89 % 1.3 in /  33.02 mm
02:40 5.4 °F /  -14.8 °C 3.9 °F /  -15.6 °C 1007.0 in /  34097 hPa Calm   4.8 mph /  7.7 km/h 90 % 1.3 in /  33.02 mm
02:50 5.5 °F /  -14.7 °C 4.0 °F /  -15.6 °C 1008.0 in /  34130.9 hPa NE 1.6 mph /  2.6 km/h 3.2 mph /  5.1 km/h 90 % 0.0 in /  0 mm
03:00 5.6 °F /  -14.7 °C 4.1 °F /  -15.5 °C 1008.0 in /  34130.9 hPa NNE 3.2 mph /  5.1 km/h 6.4 mph /  10.3 km/h 90 % 0.0 in /  0 mm
03:10 5.7 °F /  -14.6 °C 4.2 °F /  -15.4 °C 1007.0 in /  34097 hPa Calm   4.8 mph /  7.7 km/h 90 % 0.8 in /  20.32 mm
03:20 5.7 °F /  -14.6 °C 4.2 °F /  -15.4 °C 1007.0 in /  34097 hPa Calm   1.6 mph /  2.6 km/h 90 % 0.8 in /  20.32 mm
09:24 5.7 °F /  -14.6 °C 4.2 °F /  -15.4 °C 1007.0 in /  34097 hPa SW 1.9 mph /  3.1 km/h 6.4 mph /  10.3 km/h 90 % 2.0 in /  50.8 mm
09:29 5.8 °F /  -14.6 °C 4.3 °F /  -15.4 °C 1008.0 in /  34130.9 hPa SW 6.4 mph /  10.3 km/h 6.4 mph /  10.3 km/h 90 % 2.0 in /  50.8 mm
09:34 5.8 °F /  -14.6 °C 4.3 °F /  -15.4 °C 1008.0 in /  34130.9 hPa WSW 3.7 mph /  6 km/h 3.7 mph /  6 km/h 90 % 2.0 in /  50.8 mm
09:39 5.8 °F /  -14.6 °C 4.3 °F /  -15.4 °C 1008.0 in /  34130.9 hPa Calm     90 % 2.0 in /  50.8 mm
09:44 5.8 °F /  -14.6 °C 4.3 °F /  -15.4 °C 1008.0 in /  34130.9 hPa Calm     90 % 2.0 in /  50.8 mm
09:49 5.8 °F /  -14.6 °C 4.3 °F /  -15.4 °C 1008.0 in /  34130.9 hPa NNE 1.9 mph /  3.1 km/h 1.9 mph /  3.1 km/h 90 % 2.0 in /  50.8 mm
09:54 5.8 °F /  -14.6 °C 4.3 °F /  -15.4 °C 1008.0 in /  34130.9 hPa ENE 6.1 mph /  9.8 km/h 6.1 mph /  9.8 km/h 90 % 2.0 in /  50.8 mm
09:59 5.8 °F /  -14.6 °C 4.3 °F /  -15.4 °C 1008.0 in /  34130.9 hPa ENE 5.6 mph /  9 km/h   90 % 0.8 in /  20.32 mm
10:04 5.8 °F /  -14.6 °C 4.3 °F /  -15.4 °C 1008.0 in /  34130.9 hPa NE 5.6 mph /  9 km/h 5.6 mph /  9 km/h 90 % 0.8 in /  20.32 mm
10:09 5.8 °F /  -14.6 °C 4.3 °F /  -15.4 °C 1008.0 in /  34130.9 hPa West 1.9 mph /  3.1 km/h 1.9 mph /  3.1 km/h 90 % 0.8 in /  20.32 mm
10:14 5.9 °F /  -14.5 °C 4.4 °F /  -15.3 °C 1008.0 in /  34130.9 hPa NNE 1.4 mph /  2.3 km/h   90 % 0.8 in /  20.32 mm
10:20 5.8 °F /  -14.6 °C 4.3 °F /  -15.4 °C 1008.0 in /  34130.9 hPa NNE 3.7 mph /  6 km/h 3.7 mph /  6 km/h 90 % 0.0 in /  0 mm
10:25 5.8 °F /  -14.6 °C 4.3 °F /  -15.4 °C 1008.0 in /  34130.9 hPa NNW 5.6 mph /  9 km/h 5.6 mph /  9 km/h 90 % 0.0 in /  0 mm
10:30 5.8 °F /  -14.6 °C 4.3 °F /  -15.4 °C 1008.0 in /  34130.9 hPa NE 5.3 mph /  8.5 km/h 5.3 mph /  8.5 km/h 90 % 0.0 in /  0 mm
10:35 5.7 °F /  -14.6 °C 4.2 °F /  -15.4 °C 1008.0 in /  34130.9 hPa NNE 7.4 mph /  11.9 km/h 7.4 mph /  11.9 km/h 90 % 0.0 in /  0 mm
10:40 5.7 °F /  -14.6 °C 4.2 °F /  -15.4 °C 1008.0 in /  34130.9 hPa NNE 13.0 mph /  20.9 km/h 13.0 mph /  20.9 km/h 90 % 4.6 in /  116.84 mm
10:45 5.6 °F /  -14.7 °C 4.1 °F /  -15.5 °C 1008.0 in /  34130.9 hPa NE 6.1 mph /  9.8 km/h 6.1 mph /  9.8 km/h 90 % 4.6 in /  116.84 mm
10:50 5.6 °F /  -14.7 °C 4.1 °F /  -15.5 °C 1008.0 in /  34130.9 hPa North 9.3 mph /  15 km/h 9.3 mph /  15 km/h 90 % 4.6 in /  116.84 mm
10:55 5.7 °F /  -14.6 °C 4.2 °F /  -15.4 °C 1008.0 in /  34130.9 hPa ENE 7.4 mph /  11.9 km/h 7.4 mph /  11.9 km/h 90 % 4.6 in /  116.84 mm
11:00 5.7 °F /  -14.6 °C 4.2 °F /  -15.4 °C 1008.0 in /  34130.9 hPa ENE 9.3 mph /  15 km/h 9.3 mph /  15 km/h 90 % 4.6 in /  116.84 mm
11:05 5.7 °F /  -14.6 °C 4.2 °F /  -15.4 °C 1008.0 in /  34130.9 hPa NE 9.3 mph /  15 km/h 9.3 mph /  15 km/h 90 % 4.6 in /  116.84 mm
11:10 5.7 °F /  -14.6 °C 4.2 °F /  -15.4 °C 1008.0 in /  34130.9 hPa NNE 7.4 mph /  11.9 km/h 7.4 mph /  11.9 km/h 90 % 4.6 in /  116.84 mm
11:15 5.8 °F /  -14.6 °C 4.3 °F /  -15.4 °C 1007.0 in /  34097 hPa NNE 5.6 mph /  9 km/h 5.6 mph /  9 km/h 90 % 4.6 in /  116.84 mm
11:20 5.8 °F /  -14.6 °C 4.4 °F /  -15.3 °C 1007.0 in /  34097 hPa NNE 7.4 mph /  11.9 km/h 7.4 mph /  11.9 km/h 91 % 4.6 in /  116.84 mm
11:25 5.8 °F /  -14.6 °C 4.4 °F /  -15.3 °C 1007.0 in /  34097 hPa NNE 9.3 mph /  15 km/h 9.3 mph /  15 km/h 91 % 4.6 in /  116.84 mm
11:30 5.9 °F /  -14.5 °C 4.6 °F /  -15.2 °C 1007.0 in /  34097 hPa NE 6.9 mph /  11.1 km/h 6.9 mph /  11.1 km/h 91 % 4.6 in /  116.84 mm
11:35 5.9 °F /  -14.5 °C 4.4 °F /  -15.3 °C 1007.0 in /  34097 hPa NNE 11.1 mph /  17.9 km/h 11.1 mph /  17.9 km/h 90 % 4.6 in /  116.84 mm
11:40 5.9 °F /  -14.5 °C 4.4 °F /  -15.3 °C 1007.0 in /  34097 hPa NE 11.1 mph /  17.9 km/h 11.1 mph /  17.9 km/h 90 % 0.0 in /  0 mm
11:45 6.0 °F /  -14.4 °C 4.5 °F /  -15.3 °C 1008.0 in /  34130.9 hPa NNE 11.1 mph /  17.9 km/h 11.1 mph /  17.9 km/h 90 % 0.0 in /  0 mm
11:50 6.0 °F /  -14.4 °C 4.5 °F /  -15.3 °C 1008.0 in /  34130.9 hPa ENE 6.1 mph /  9.8 km/h 6.1 mph /  9.8 km/h 90 % 0.0 in /  0 mm
11:55 6.0 °F /  -14.4 °C 4.5 °F /  -15.3 °C 1008.0 in /  34130.9 hPa NNE 7.4 mph /  11.9 km/h 7.4 mph /  11.9 km/h 90 % 0.0 in /  0 mm
12:00 6.0 °F /  -14.4 °C 4.7 °F /  -15.2 °C 1008.0 in /  34130.9 hPa NNE 8.7 mph /  14 km/h 8.7 mph /  14 km/h 91 % 0.0 in /  0 mm
12:05 6.1 °F /  -14.4 °C 4.7 °F /  -15.2 °C 1008.0 in /  34130.9 hPa NNE 7.6 mph /  12.2 km/h 7.6 mph /  12.2 km/h 91 % 0.0 in /  0 mm
12:10 6.1 °F /  -14.4 °C 4.7 °F /  -15.2 °C 1008.0 in /  34130.9 hPa North 1.9 mph /  3.1 km/h   91 % 0.0 in /  0 mm
12:15 6.1 °F /  -14.4 °C 4.7 °F /  -15.2 °C 1008.0 in /  34130.9 hPa NNE 1.9 mph /  3.1 km/h 1.9 mph /  3.1 km/h 91 % 0.0 in /  0 mm
12:20 6.2 °F /  -14.3 °C 4.8 °F /  -15.1 °C 1008.0 in /  34130.9 hPa NNE 3.9 mph /  6.3 km/h 3.9 mph /  6.3 km/h 91 % 0.0 in /  0 mm
12:25 6.3 °F /  -14.3 °C 4.9 °F /  -15.1 °C 1008.0 in /  34130.9 hPa ENE 3.7 mph /  6 km/h 3.7 mph /  6 km/h 91 % 0.0 in /  0 mm
12:30 6.3 °F /  -14.3 °C 4.9 °F /  -15.1 °C 1008.0 in /  34130.9 hPa NE 5.6 mph /  9 km/h 5.6 mph /  9 km/h 91 % 0.0 in /  0 mm
12:35 6.4 °F /  -14.2 °C 5.1 °F /  -14.9 °C 1008.0 in /  34130.9 hPa NNE 7.4 mph /  11.9 km/h 7.4 mph /  11.9 km/h 91 % 0.0 in /  0 mm
12:40 6.5 °F /  -14.2 °C 5.1 °F /  -14.9 °C 1008.0 in /  34130.9 hPa North 5.0 mph /  8 km/h 5.0 mph /  8 km/h 91 % 0.0 in /  0 mm
12:45 6.5 °F /  -14.2 °C 5.1 °F /  -14.9 °C 1008.0 in /  34130.9 hPa Calm     91 % 0.0 in /  0 mm
12:50 6.6 °F /  -14.1 °C 5.2 °F /  -14.9 °C 1008.0 in /  34130.9 hPa SSW 3.2 mph /  5.1 km/h 3.2 mph /  5.1 km/h 91 % 0.0 in /  0 mm
12:55 6.6 °F /  -14.1 °C 5.2 °F /  -14.9 °C 1008.0 in /  34130.9 hPa Calm     91 % 0.0 in /  0 mm
13:00 6.8 °F /  -14 °C 5.4 °F /  -14.8 °C 1008.0 in /  34130.9 hPa SSW 2.3 mph /  3.7 km/h   91 % 0.0 in /  0 mm
13:05 6.7 °F /  -14.1 °C 5.3 °F /  -14.8 °C 1008.0 in /  34130.9 hPa WSW 14.8 mph /  23.8 km/h 14.8 mph /  23.8 km/h 91 % 0.0 in /  0 mm
13:10 6.7 °F /  -14.1 °C 5.3 °F /  -14.8 °C 1008.0 in /  34130.9 hPa WSW 5.6 mph /  9 km/h 5.6 mph /  9 km/h 91 % 0.0 in /  0 mm
13:15 6.7 °F /  -14.1 °C 5.3 °F /  -14.8 °C 1008.0 in /  34130.9 hPa West 5.6 mph /  9 km/h 5.6 mph /  9 km/h 91 % 0.0 in /  0 mm
13:20 6.8 °F /  -14 °C 5.4 °F /  -14.8 °C 1008.0 in /  34130.9 hPa WSW 6.4 mph /  10.3 km/h 6.4 mph /  10.3 km/h 91 % 0.0 in /  0 mm
13:25 6.7 °F /  -14.1 °C 5.3 °F /  -14.8 °C 1008.0 in /  34130.9 hPa West 4.2 mph /  6.8 km/h 4.2 mph /  6.8 km/h 91 % 0.0 in /  0 mm
13:30 6.7 °F /  -14.1 °C 5.2 °F /  -14.9 °C 1008.0 in /  34130.9 hPa WSW 7.4 mph /  11.9 km/h 7.4 mph /  11.9 km/h 90 % 0.0 in /  0 mm
13:35 6.8 °F /  -14 °C 5.4 °F /  -14.8 °C 1008.0 in /  34130.9 hPa WSW 5.6 mph /  9 km/h 5.6 mph /  9 km/h 91 % 0.0 in /  0 mm
13:40 6.7 °F /  -14.1 °C 5.3 °F /  -14.8 °C 1008.0 in /  34130.9 hPa SW 5.6 mph /  9 km/h 5.6 mph /  9 km/h 91 % 0.0 in /  0 mm
13:45 6.7 °F /  -14.1 °C 5.3 °F /  -14.8 °C 1008.0 in /  34130.9 hPa WSW 1.9 mph /  3.1 km/h   91 % 0.0 in /  0 mm
13:50 6.6 °F /  -14.1 °C 5.2 °F /  -14.9 °C 1008.0 in /  34130.9 hPa SW 1.9 mph /  3.1 km/h   91 % 7.1 in /  180.34 mm
13:55 6.6 °F /  -14.1 °C 5.2 °F /  -14.9 °C 1008.0 in /  34130.9 hPa Calm     91 % 7.1 in /  180.34 mm
14:00 6.7 °F /  -14.1 °C 5.3 °F /  -14.8 °C 1008.0 in /  34130.9 hPa NNE 1.9 mph /  3.1 km/h   91 % 7.1 in /  180.34 mm
14:05 6.7 °F /  -14.1 °C 5.3 °F /  -14.8 °C 1008.0 in /  34130.9 hPa WNW 3.7 mph /  6 km/h 3.7 mph /  6 km/h 91 % 7.1 in /  180.34 mm
14:10 6.7 °F /  -14.1 °C 5.3 °F /  -14.8 °C 1008.0 in /  34130.9 hPa WNW 1.9 mph /  3.1 km/h   91 % 7.1 in /  180.34 mm
14:15 6.7 °F /  -14.1 °C 5.3 °F /  -14.8 °C 1008.0 in /  34130.9 hPa North 5.0 mph /  8 km/h   91 % 7.1 in /  180.34 mm
14:20 6.7 °F /  -14.1 °C 5.3 °F /  -14.8 °C 1008.0 in /  34130.9 hPa NE 5.0 mph /  8 km/h 5.0 mph /  8 km/h 91 % 7.1 in /  180.34 mm
14:25 6.7 °F /  -14.1 °C 5.3 °F /  -14.8 °C 1008.0 in /  34130.9 hPa ENE 7.6 mph /  12.2 km/h 7.6 mph /  12.2 km/h 91 % 7.1 in /  180.34 mm
14:30 6.7 °F /  -14.1 °C 5.3 °F /  -14.8 °C 1008.0 in /  34130.9 hPa North 9.3 mph /  15 km/h 9.3 mph /  15 km/h 91 % 7.1 in /  180.34 mm
14:35 6.6 °F /  -14.1 °C 5.2 °F /  -14.9 °C 1008.0 in /  34130.9 hPa NNE 6.4 mph /  10.3 km/h 6.4 mph /  10.3 km/h 91 % 7.1 in /  180.34 mm
14:40 6.7 °F /  -14.1 °C 5.3 °F /  -14.8 °C 1008.0 in /  34130.9 hPa NNW 5.6 mph /  9 km/h 5.6 mph /  9 km/h 91 % 7.1 in /  180.34 mm
14:45 6.7 °F /  -14.1 °C 5.3 °F /  -14.8 °C 1007.0 in /  34097 hPa NNW 3.7 mph /  6 km/h 3.7 mph /  6 km/h 91 % 7.1 in /  180.34 mm
14:50 6.7 °F /  -14.1 °C 5.3 °F /  -14.8 °C 1007.0 in /  34097 hPa NE 3.7 mph /  6 km/h   91 % 0.0 in /  0 mm
14:55 6.7 °F /  -14.1 °C 5.3 °F /  -14.8 °C 1007.0 in /  34097 hPa ENE 1.9 mph /  3.1 km/h 1.9 mph /  3.1 km/h 91 % 0.0 in /  0 mm
15:00 6.7 °F /  -14.1 °C 5.3 °F /  -14.8 °C 1008.0 in /  34130.9 hPa NE 6.9 mph /  11.1 km/h 6.9 mph /  11.1 km/h 91 % 0.0 in /  0 mm
15:05 6.6 °F /  -14.1 °C 5.2 °F /  -14.9 °C 1008.0 in /  34130.9 hPa NW 5.6 mph /  9 km/h 5.6 mph /  9 km/h 91 % 0.0 in /  0 mm
15:10 6.5 °F /  -14.2 °C 5.1 °F /  -14.9 °C 1008.0 in /  34130.9 hPa NNE 9.3 mph /  15 km/h 9.3 mph /  15 km/h 91 % 0.0 in /  0 mm
15:15 6.5 °F /  -14.2 °C 5.1 °F /  -14.9 °C 1007.0 in /  34097 hPa ENE 5.6 mph /  9 km/h 5.6 mph /  9 km/h 91 % 0.0 in /  0 mm
15:20 6.6 °F /  -14.1 °C 5.2 °F /  -14.9 °C 1007.0 in /  34097 hPa NNE 5.6 mph /  9 km/h 5.6 mph /  9 km/h 91 % 0.0 in /  0 mm
15:25 6.6 °F /  -14.1 °C 5.2 °F /  -14.9 °C 1007.0 in /  34097 hPa North 7.4 mph /  11.9 km/h 7.4 mph /  11.9 km/h 91 % 0.0 in /  0 mm
15:30 6.5 °F /  -14.2 °C 5.1 °F /  -14.9 °C 1007.0 in /  34097 hPa NNE 11.1 mph /  17.9 km/h 11.1 mph /  17.9 km/h 91 % 0.0 in /  0 mm
15:35 6.5 °F /  -14.2 °C 5.1 °F /  -14.9 °C 1007.0 in /  34097 hPa NNE 7.4 mph /  11.9 km/h 7.4 mph /  11.9 km/h 91 % 0.0 in /  0 mm
15:40 6.5 °F /  -14.2 °C 5.1 °F /  -14.9 °C 1007.0 in /  34097 hPa ENE 10.3 mph /  16.6 km/h 10.3 mph /  16.6 km/h 91 % 0.0 in /  0 mm
15:45 6.5 °F /  -14.2 °C 5.0 °F /  -15 °C 1008.0 in /  34130.9 hPa NNE 9.3 mph /  15 km/h 9.3 mph /  15 km/h 90 % 0.0 in /  0 mm
15:50 6.5 °F /  -14.2 °C 5.0 °F /  -15 °C 1008.0 in /  34130.9 hPa ENE 9.3 mph /  15 km/h 9.3 mph /  15 km/h 90 % 0.0 in /  0 mm
15:55 6.5 °F /  -14.2 °C 5.0 °F /  -15 °C 1008.0 in /  34130.9 hPa NNW 11.1 mph /  17.9 km/h 11.1 mph /  17.9 km/h 90 % 0.0 in /  0 mm
16:00 6.5 °F /  -14.2 °C 5.0 °F /  -15 °C 1008.0 in /  34130.9 hPa ENE 9.7 mph /  15.6 km/h 9.7 mph /  15.6 km/h 90 % 0.0 in /  0 mm
16:05 6.5 °F /  -14.2 °C 5.0 °F /  -15 °C 1008.0 in /  34130.9 hPa NNE 9.7 mph /  15.6 km/h 9.7 mph /  15.6 km/h 90 % 0.0 in /  0 mm
16:10 6.4 °F /  -14.2 °C 4.9 °F /  -15.1 °C 1008.0 in /  34130.9 hPa NNE 9.3 mph /  15 km/h 9.3 mph /  15 km/h 90 % 0.0 in /  0 mm
16:15 6.4 °F /  -14.2 °C 4.9 °F /  -15.1 °C 1007.0 in /  34097 hPa SE 9.3 mph /  15 km/h 9.3 mph /  15 km/h 90 % 0.0 in /  0 mm
16:20 6.3 °F /  -14.3 °C 4.8 °F /  -15.1 °C 1007.0 in /  34097 hPa ENE 9.3 mph /  15 km/h 9.3 mph /  15 km/h 90 % 0.0 in /  0 mm
16:25 6.4 °F /  -14.2 °C 4.9 °F /  -15.1 °C 1007.0 in /  34097 hPa NNE 7.4 mph /  11.9 km/h 7.4 mph /  11.9 km/h 90 % 0.0 in /  0 mm
16:30 6.3 °F /  -14.3 °C 4.8 °F /  -15.1 °C 1008.0 in /  34130.9 hPa NNW 14.0 mph /  22.5 km/h 14.0 mph /  22.5 km/h 90 % 0.0 in /  0 mm
16:35 6.3 °F /  -14.3 °C 4.8 °F /  -15.1 °C 1008.0 in /  34130.9 hPa NNE 7.4 mph /  11.9 km/h 7.4 mph /  11.9 km/h 90 % 0.0 in /  0 mm
16:40 6.2 °F /  -14.3 °C 4.7 °F /  -15.2 °C 1008.0 in /  34130.9 hPa NE 9.3 mph /  15 km/h 9.3 mph /  15 km/h 90 % 0.0 in /  0 mm
16:45 6.2 °F /  -14.3 °C 4.7 °F /  -15.2 °C 1008.0 in /  34130.9 hPa NNE 9.3 mph /  15 km/h 9.3 mph /  15 km/h 90 % 0.0 in /  0 mm
16:50 6.2 °F /  -14.3 °C 4.7 °F /  -15.2 °C 1008.0 in /  34130.9 hPa NNE 9.3 mph /  15 km/h 9.3 mph /  15 km/h 90 % 0.0 in /  0 mm
16:55 6.2 °F /  -14.3 °C 4.5 °F /  -15.3 °C 1008.0 in /  34130.9 hPa NNE 9.3 mph /  15 km/h 9.3 mph /  15 km/h 89 % 0.0 in /  0 mm
17:00 6.1 °F /  -14.4 °C 4.4 °F /  -15.3 °C 1008.0 in /  34130.9 hPa ENE 9.3 mph /  15 km/h 9.5 mph /  15.3 km/h 89 % 0.0 in /  0 mm
17:05 6.2 °F /  -14.3 °C 4.5 °F /  -15.3 °C 1008.0 in /  34130.9 hPa NNE 16.7 mph /  26.9 km/h 16.7 mph /  26.9 km/h 89 % 0.0 in /  0 mm
17:10 6.2 °F /  -14.3 °C 4.3 °F /  -15.4 °C 1008.0 in /  34130.9 hPa ENE 11.1 mph /  17.9 km/h 11.1 mph /  17.9 km/h 88 % 0.0 in /  0 mm
17:15 6.2 °F /  -14.3 °C 4.3 °F /  -15.4 °C 1008.0 in /  34130.9 hPa NNE 7.4 mph /  11.9 km/h 7.4 mph /  11.9 km/h 88 % 0.0 in /  0 mm
17:20 6.2 °F /  -14.3 °C 4.3 °F /  -15.4 °C 1008.0 in /  34130.9 hPa NNW 9.3 mph /  15 km/h 9.3 mph /  15 km/h 88 % 0.0 in /  0 mm
17:25 6.2 °F /  -14.3 °C 4.3 °F /  -15.4 °C 1008.0 in /  34130.9 hPa ENE 5.6 mph /  9 km/h 5.6 mph /  9 km/h 88 % 0.0 in /  0 mm
17:30 6.2 °F /  -14.3 °C 4.3 °F /  -15.4 °C 1008.0 in /  34130.9 hPa NNE 6.9 mph /  11.1 km/h 6.9 mph /  11.1 km/h 88 % 0.0 in /  0 mm
17:35 6.1 °F /  -14.4 °C 4.3 °F /  -15.4 °C 1008.0 in /  34130.9 hPa NNE 7.4 mph /  11.9 km/h 7.4 mph /  11.9 km/h 88 % 0.0 in /  0 mm
17:40 6.1 °F /  -14.4 °C 4.3 °F /  -15.4 °C 1008.0 in /  34130.9 hPa NNE 7.4 mph /  11.9 km/h 7.4 mph /  11.9 km/h 88 % 0.0 in /  0 mm
17:45 6.0 °F /  -14.4 °C 4.2 °F /  -15.4 °C 1008.0 in /  34130.9 hPa NW 7.4 mph /  11.9 km/h 7.4 mph /  11.9 km/h 88 % 0.0 in /  0 mm
17:50 6.0 °F /  -14.4 °C 4.3 °F /  -15.4 °C 1008.0 in /  34130.9 hPa NNE 7.4 mph /  11.9 km/h 7.4 mph /  11.9 km/h 89 % 0.0 in /  0 mm
17:55 6.0 °F /  -14.4 °C 4.3 °F /  -15.4 °C 1008.0 in /  34130.9 hPa ENE 3.7 mph /  6 km/h 4.2 mph /  6.8 km/h 89 % 0.0 in /  0 mm
18:00 6.0 °F /  -14.4 °C 4.3 °F /  -15.4 °C 1008.0 in /  34130.9 hPa NNE 9.3 mph /  15 km/h 9.3 mph /  15 km/h 89 % 0.0 in /  0 mm
18:05 6.1 °F /  -14.4 °C 4.4 °F /  -15.3 °C 1008.0 in /  34130.9 hPa NE 6.9 mph /  11.1 km/h 6.9 mph /  11.1 km/h 89 % 0.0 in /  0 mm
18:10 6.1 °F /  -14.4 °C 4.4 °F /  -15.3 °C 1008.0 in /  34130.9 hPa NNE 7.4 mph /  11.9 km/h 7.4 mph /  11.9 km/h 89 % 0.0 in /  0 mm
18:15 6.2 °F /  -14.3 °C 4.5 °F /  -15.3 °C 1008.0 in /  34130.9 hPa NNW 9.7 mph /  15.6 km/h 9.7 mph /  15.6 km/h 89 % 0.0 in /  0 mm
18:20 6.2 °F /  -14.3 °C 4.5 °F /  -15.3 °C 1008.0 in /  34130.9 hPa NNE 11.1 mph /  17.9 km/h 11.1 mph /  17.9 km/h 89 % 0.0 in /  0 mm
18:25 6.3 °F /  -14.3 °C 4.6 °F /  -15.2 °C 1008.0 in /  34130.9 hPa East 9.3 mph /  15 km/h 9.3 mph /  15 km/h 89 % 0.0 in /  0 mm
18:30 6.3 °F /  -14.3 °C 4.6 °F /  -15.2 °C 1008.0 in /  34130.9 hPa ENE 7.4 mph /  11.9 km/h 7.4 mph /  11.9 km/h 89 % 0.0 in /  0 mm
18:35 6.2 °F /  -14.3 °C 4.5 °F /  -15.3 °C 1008.0 in /  34130.9 hPa NNE 4.7 mph /  7.6 km/h 4.7 mph /  7.6 km/h 89 % 0.0 in /  0 mm
18:40 6.2 °F /  -14.3 °C 4.5 °F /  -15.3 °C 1008.0 in /  34130.9 hPa NNW 7.4 mph /  11.9 km/h 7.4 mph /  11.9 km/h 89 % 0.0 in /  0 mm
18:45 6.2 °F /  -14.3 °C 4.5 °F /  -15.3 °C 1008.0 in /  34130.9 hPa NNE 5.6 mph /  9 km/h 5.6 mph /  9 km/h 89 % 0.0 in /  0 mm
18:50 6.2 °F /  -14.3 °C 4.5 °F /  -15.3 °C 1008.0 in /  34130.9 hPa North 3.7 mph /  6 km/h 3.7 mph /  6 km/h 89 % 0.0 in /  0 mm
18:55 6.2 °F /  -14.3 °C 4.5 °F /  -15.3 °C 1008.0 in /  34130.9 hPa NNE 3.7 mph /  6 km/h 3.7 mph /  6 km/h 89 % 0.0 in /  0 mm
19:00 6.2 °F /  -14.3 °C 4.5 °F /  -15.3 °C 1008.0 in /  34130.9 hPa NNE 3.7 mph /  6 km/h 3.7 mph /  6 km/h 89 % 0.0 in /  0 mm
19:05 6.2 °F /  -14.3 °C 4.5 °F /  -15.3 °C 1008.0 in /  34130.9 hPa NNE 7.6 mph /  12.2 km/h 7.6 mph /  12.2 km/h 89 % 0.0 in /  0 mm
19:10 6.3 °F /  -14.3 °C 4.6 °F /  -15.2 °C 1008.0 in /  34130.9 hPa ENE 8.7 mph /  14 km/h 8.7 mph /  14 km/h 89 % 0.0 in /  0 mm
19:15 6.4 °F /  -14.2 °C 4.7 °F /  -15.2 °C 1008.0 in /  34130.9 hPa NNE 9.3 mph /  15 km/h 9.3 mph /  15 km/h 89 % 0.0 in /  0 mm
19:20 6.5 °F /  -14.2 °C 4.8 °F /  -15.1 °C 1008.0 in /  34130.9 hPa NNE 7.4 mph /  11.9 km/h 7.4 mph /  11.9 km/h 89 % 0.0 in /  0 mm
19:25 6.5 °F /  -14.2 °C 4.8 °F /  -15.1 °C 1008.0 in /  34130.9 hPa ENE 1.9 mph /  3.1 km/h 1.9 mph /  3.1 km/h 89 % 0.0 in /  0 mm
19:30 6.4 °F /  -14.2 °C 4.7 °F /  -15.2 °C 1008.0 in /  34130.9 hPa NNE 1.9 mph /  3.1 km/h   89 % 0.0 in /  0 mm
19:35 6.4 °F /  -14.2 °C 4.7 °F /  -15.2 °C 1008.0 in /  34130.9 hPa NNE 2.3 mph /  3.7 km/h 2.3 mph /  3.7 km/h 89 % 0.0 in /  0 mm
19:40 6.4 °F /  -14.2 °C 4.7 °F /  -15.2 °C 1008.0 in /  34130.9 hPa NNE 3.7 mph /  6 km/h 3.7 mph /  6 km/h 89 % 0.0 in /  0 mm
19:45 6.4 °F /  -14.2 °C 4.7 °F /  -15.2 °C 1009.0 in /  34164.7 hPa NNE 4.7 mph /  7.6 km/h 4.7 mph /  7.6 km/h 89 % 0.0 in /  0 mm
19:50 6.4 °F /  -14.2 °C 4.7 °F /  -15.2 °C 1009.0 in /  34164.7 hPa ENE 4.2 mph /  6.8 km/h 4.2 mph /  6.8 km/h 89 % 0.0 in /  0 mm
19:55 6.5 °F /  -14.2 °C 4.8 °F /  -15.1 °C 1009.0 in /  34164.7 hPa NE 5.6 mph /  9 km/h 5.6 mph /  9 km/h 89 % 0.0 in /  0 mm
20:00 6.5 °F /  -14.2 °C 4.8 °F /  -15.1 °C 1009.0 in /  34164.7 hPa NNE 7.4 mph /  11.9 km/h 7.4 mph /  11.9 km/h 89 % 0.0 in /  0 mm
20:05 6.6 °F /  -14.1 °C 4.9 °F /  -15.1 °C 1009.0 in /  34164.7 hPa ENE 3.7 mph /  6 km/h 3.7 mph /  6 km/h 89 % 0.0 in /  0 mm
20:10 6.6 °F /  -14.1 °C 4.9 °F /  -15.1 °C 1009.0 in /  34164.7 hPa ENE 3.7 mph /  6 km/h 3.7 mph /  6 km/h 89 % 0.0 in /  0 mm
20:15 6.6 °F /  -14.1 °C 4.8 °F /  -15.1 °C 1009.0 in /  34164.7 hPa NNE 5.6 mph /  9 km/h 5.6 mph /  9 km/h 88 % 0.0 in /  0 mm
20:20 6.6 °F /  -14.1 °C 4.8 °F /  -15.1 °C 1009.0 in /  34164.7 hPa NE 7.9 mph /  12.7 km/h 7.9 mph /  12.7 km/h 88 % 0.0 in /  0 mm
20:25 6.6 °F /  -14.1 °C 4.8 °F /  -15.1 °C 1009.0 in /  34164.7 hPa NNE 11.1 mph /  17.9 km/h 11.1 mph /  17.9 km/h 88 % 0.0 in /  0 mm
20:30 6.5 °F /  -14.2 °C 4.7 °F /  -15.2 °C 1008.0 in /  34130.9 hPa NNE 7.4 mph /  11.9 km/h 7.4 mph /  11.9 km/h 88 % 0.0 in /  0 mm
20:35 6.5 °F /  -14.2 °C 4.7 °F /  -15.2 °C 1008.0 in /  34130.9 hPa NNE 7.9 mph /  12.7 km/h 7.9 mph /  12.7 km/h 88 % 0.0 in /  0 mm
20:40 6.5 °F /  -14.2 °C 4.7 °F /  -15.2 °C 1008.0 in /  34130.9 hPa NNE 7.4 mph /  11.9 km/h 7.4 mph /  11.9 km/h 88 % 0.0 in /  0 mm
20:45 6.5 °F /  -14.2 °C 4.7 °F /  -15.2 °C 1008.0 in /  34130.9 hPa NNE 9.3 mph /  15 km/h 9.3 mph /  15 km/h 88 % 0.0 in /  0 mm
20:50 6.5 °F /  -14.2 °C 4.7 °F /  -15.2 °C 1008.0 in /  34130.9 hPa NNE 7.6 mph /  12.2 km/h 7.6 mph /  12.2 km/h 88 % 0.0 in /  0 mm
20:55 6.5 °F /  -14.2 °C 4.7 °F /  -15.2 °C 1008.0 in /  34130.9 hPa NNE 9.3 mph /  15 km/h 9.3 mph /  15 km/h 88 % 0.0 in /  0 mm
21:00 6.5 °F /  -14.2 °C 4.7 °F /  -15.2 °C 1009.0 in /  34164.7 hPa NNE 9.3 mph /  15 km/h 9.3 mph /  15 km/h 88 % 0.0 in /  0 mm
21:05 6.5 °F /  -14.2 °C 4.7 °F /  -15.2 °C 1009.0 in /  34164.7 hPa NNE 7.4 mph /  11.9 km/h 7.4 mph /  11.9 km/h 88 % 0.0 in /  0 mm
21:10 6.5 °F /  -14.2 °C 4.7 °F /  -15.2 °C 1009.0 in /  34164.7 hPa NNE 3.7 mph /  6 km/h 3.7 mph /  6 km/h 88 % 0.0 in /  0 mm
21:15 6.5 °F /  -14.2 °C 4.5 °F /  -15.3 °C 1008.0 in /  34130.9 hPa ENE 4.2 mph /  6.8 km/h 4.2 mph /  6.8 km/h 87 % 0.0 in /  0 mm
21:20 6.5 °F /  -14.2 °C 4.5 °F /  -15.3 °C 1008.0 in /  34130.9 hPa NNE 3.7 mph /  6 km/h 3.7 mph /  6 km/h 87 % 0.0 in /  0 mm
21:25 6.5 °F /  -14.2 °C 4.5 °F /  -15.3 °C 1008.0 in /  34130.9 hPa NNE 5.8 mph /  9.3 km/h 5.8 mph /  9.3 km/h 87 % 0.0 in /  0 mm
21:30 6.5 °F /  -14.2 °C 4.5 °F /  -15.3 °C 1009.0 in /  34164.7 hPa NW 3.7 mph /  6 km/h 3.7 mph /  6 km/h 87 % 0.0 in /  0 mm
21:35 6.5 °F /  -14.2 °C 4.5 °F /  -15.3 °C 1009.0 in /  34164.7 hPa South 3.7 mph /  6 km/h 3.7 mph /  6 km/h 87 % 0.0 in /  0 mm
21:40 6.4 °F /  -14.2 °C 4.4 °F /  -15.3 °C 1009.0 in /  34164.7 hPa NNE 5.0 mph /  8 km/h 5.0 mph /  8 km/h 87 % 0.0 in /  0 mm
21:45 6.4 °F /  -14.2 °C 4.4 °F /  -15.3 °C 1009.0 in /  34164.7 hPa Calm     87 % 0.0 in /  0 mm
21:50 6.4 °F /  -14.2 °C 4.4 °F /  -15.3 °C 1009.0 in /  34164.7 hPa NNE 1.9 mph /  3.1 km/h   87 % 0.0 in /  0 mm
21:55 6.4 °F /  -14.2 °C 4.4 °F /  -15.3 °C 1009.0 in /  34164.7 hPa Calm     87 % 0.0 in /  0 mm
22:00 6.4 °F /  -14.2 °C 4.4 °F /  -15.3 °C 1009.0 in /  34164.7 hPa NE 2.3 mph /  3.7 km/h   87 % 0.0 in /  0 mm
22:05 6.4 °F /  -14.2 °C 4.4 °F /  -15.3 °C 1009.0 in /  34164.7 hPa NNW 4.2 mph /  6.8 km/h   87 % 0.0 in /  0 mm
22:10 6.4 °F /  -14.2 °C 4.4 °F /  -15.3 °C 1009.0 in /  34164.7 hPa ENE 1.9 mph /  3.1 km/h 1.9 mph /  3.1 km/h 87 % 0.0 in /  0 mm
22:15 6.4 °F /  -14.2 °C 4.4 °F /  -15.3 °C 1009.0 in /  34164.7 hPa Calm     87 % 0.0 in /  0 mm
22:20 6.4 °F /  -14.2 °C 4.4 °F /  -15.3 °C 1009.0 in /  34164.7 hPa NNE 3.7 mph /  6 km/h 3.7 mph /  6 km/h 87 % 0.0 in /  0 mm
22:25 6.4 °F /  -14.2 °C 4.4 °F /  -15.3 °C 1009.0 in /  34164.7 hPa NNW 1.9 mph /  3.1 km/h   87 % 0.0 in /  0 mm
22:30 6.4 °F /  -14.2 °C 4.4 °F /  -15.3 °C 1008.0 in /  34130.9 hPa NE 3.7 mph /  6 km/h 3.7 mph /  6 km/h 87 % 0.0 in /  0 mm
22:35 6.4 °F /  -14.2 °C 4.4 °F /  -15.3 °C 1008.0 in /  34130.9 hPa NE 1.9 mph /  3.1 km/h   87 % 0.0 in /  0 mm
22:40 6.4 °F /  -14.2 °C 4.6 °F /  -15.2 °C 1008.0 in /  34130.9 hPa Calm     88 % 0.0 in /  0 mm
22:45 6.4 °F /  -14.2 °C 4.6 °F /  -15.2 °C 1008.0 in /  34130.9 hPa NNE 1.9 mph /  3.1 km/h 2.3 mph /  3.7 km/h 88 % 0.0 in /  0 mm
22:50 6.4 °F /  -14.2 °C 4.6 °F /  -15.2 °C 1008.0 in /  34130.9 hPa NE 1.9 mph /  3.1 km/h   88 % 0.0 in /  0 mm
22:55 6.4 °F /  -14.2 °C 4.6 °F /  -15.2 °C 1008.0 in /  34130.9 hPa Calm     88 % 0.0 in /  0 mm
23:00 6.4 °F /  -14.2 °C 4.6 °F /  -15.2 °C 1008.0 in /  34130.9 hPa Calm     88 % 0.0 in /  0 mm
23:05 6.4 °F /  -14.2 °C 4.6 °F /  -15.2 °C 1008.0 in /  34130.9 hPa Calm     88 % 0.0 in /  0 mm
23:10 6.4 °F /  -14.2 °C 4.6 °F /  -15.2 °C 1008.0 in /  34130.9 hPa Calm     88 % 0.0 in /  0 mm
23:15 6.4 °F /  -14.2 °C 4.6 °F /  -15.2 °C 1008.0 in /  34130.9 hPa Calm     88 % 6.1 in /  154.94 mm
23:20 6.4 °F /  -14.2 °C 4.7 °F /  -15.2 °C 1008.0 in /  34130.9 hPa Calm     89 % 6.1 in /  154.94 mm
23:25 6.4 °F /  -14.2 °C 4.7 °F /  -15.2 °C 1008.0 in /  34130.9 hPa Calm     89 % 6.1 in /  154.94 mm
23:30 6.4 °F /  -14.2 °C 4.7 °F /  -15.2 °C 1008.0 in /  34130.9 hPa Calm     89 % 6.1 in /  154.94 mm
23:35 6.4 °F /  -14.2 °C 4.7 °F /  -15.2 °C 1008.0 in /  34130.9 hPa Calm     89 % 6.1 in /  154.94 mm
23:40 6.4 °F /  -14.2 °C 4.7 °F /  -15.2 °C 1008.0 in /  34130.9 hPa West 2.3 mph /  3.7 km/h   89 % 6.1 in /  154.94 mm
23:45 6.4 °F /  -14.2 °C 4.7 °F /  -15.2 °C 1008.0 in /  34130.9 hPa WSW 1.9 mph /  3.1 km/h   89 % 6.1 in /  154.94 mm
23:50 6.4 °F /  -14.2 °C 4.7 °F /  -15.2 °C 1008.0 in /  34130.9 hPa SW 5.6 mph /  9 km/h 5.6 mph /  9 km/h 89 % 6.1 in /  154.94 mm
23:55 6.4 °F /  -14.2 °C 4.7 °F /  -15.2 °C 1008.0 in /  34130.9 hPa WSW 1.9 mph /  3.1 km/h   89 % 6.1 in /  154.94 mm
Meteo Sesrovires
Elogis d' Weather Underground - 3.75 mb

Guio original per  Jim McMurry - jmcmurry@mwt.net Adaptat per a la plantilla per  Wim van der Kuil - Leuven-Template.eu

Trobareu la nostra informacio del temps tambe a:

Weather Underground

AWEKAS